sensor_id;sensor_type;location;lat;lon;timestamp;P1;durP1;ratioP1;P2;durP2;ratioP2
36575;SDS011;45700;50.930;5.168;2023-02-15T00:01:54;62.83;;;22.70;;
36575;SDS011;45700;50.930;5.168;2023-02-15T00:05:56;74.60;;;21.10;;
36575;SDS011;45700;50.930;5.168;2023-02-15T00:09:57;67.95;;;22.20;;
36575;SDS011;45700;50.930;5.168;2023-02-15T00:13:58;71.53;;;21.67;;
36575;SDS011;45700;50.930;5.168;2023-02-15T00:17:59;68.55;;;21.35;;
36575;SDS011;45700;50.930;5.168;2023-02-15T00:22:00;90.22;;;24.55;;
36575;SDS011;45700;50.930;5.168;2023-02-15T00:26:08;84.72;;;24.50;;
36575;SDS011;45700;50.930;5.168;2023-02-15T00:30:09;86.80;;;25.27;;
36575;SDS011;45700;50.930;5.168;2023-02-15T00:34:15;86.53;;;25.80;;
36575;SDS011;45700;50.930;5.168;2023-02-15T00:38:16;89.53;;;24.98;;
36575;SDS011;45700;50.930;5.168;2023-02-15T00:42:17;99.93;;;29.27;;
36575;SDS011;45700;50.930;5.168;2023-02-15T00:46:18;93.88;;;27.15;;
36575;SDS011;45700;50.930;5.168;2023-02-15T00:50:19;79.88;;;23.88;;
36575;SDS011;45700;50.930;5.168;2023-02-15T00:54:20;89.07;;;24.50;;
36575;SDS011;45700;50.930;5.168;2023-02-15T00:58:21;86.30;;;23.25;;
36575;SDS011;45700;50.930;5.168;2023-02-15T01:02:22;88.88;;;22.23;;
36575;SDS011;45700;50.930;5.168;2023-02-15T01:06:23;82.85;;;22.25;;
36575;SDS011;45700;50.930;5.168;2023-02-15T01:10:24;62.80;;;21.52;;
36575;SDS011;45700;50.930;5.168;2023-02-15T01:14:26;56.13;;;19.38;;
36575;SDS011;45700;50.930;5.168;2023-02-15T01:18:27;71.25;;;20.13;;
36575;SDS011;45700;50.930;5.168;2023-02-15T01:22:28;82.18;;;25.67;;
36575;SDS011;45700;50.930;5.168;2023-02-15T01:26:29;75.20;;;24.85;;
36575;SDS011;45700;50.930;5.168;2023-02-15T01:30:30;93.20;;;25.33;;
36575;SDS011;45700;50.930;5.168;2023-02-15T01:34:31;82.38;;;24.10;;
36575;SDS011;45700;50.930;5.168;2023-02-15T01:38:32;84.43;;;25.98;;
36575;SDS011;45700;50.930;5.168;2023-02-15T01:42:33;78.57;;;23.38;;
36575;SDS011;45700;50.930;5.168;2023-02-15T01:50:42;71.95;;;23.65;;
36575;SDS011;45700;50.930;5.168;2023-02-15T01:54:45;70.78;;;21.67;;
36575;SDS011;45700;50.930;5.168;2023-02-15T01:58:47;76.20;;;24.55;;
36575;SDS011;45700;50.930;5.168;2023-02-15T02:02:49;77.00;;;24.23;;
36575;SDS011;45700;50.930;5.168;2023-02-15T02:06:53;73.35;;;21.70;;
36575;SDS011;45700;50.930;5.168;2023-02-15T02:10:55;63.67;;;21.77;;
36575;SDS011;45700;50.930;5.168;2023-02-15T02:14:56;75.13;;;20.83;;
36575;SDS011;45700;50.930;5.168;2023-02-15T02:19:12;93.82;;;22.67;;
36575;SDS011;45700;50.930;5.168;2023-02-15T02:40:23;66.75;;;19.85;;
36575;SDS011;45700;50.930;5.168;2023-02-15T02:44:31;69.10;;;21.30;;
36575;SDS011;45700;50.930;5.168;2023-02-15T02:48:36;66.60;;;21.67;;
36575;SDS011;45700;50.930;5.168;2023-02-15T02:52:41;58.20;;;18.85;;
36575;SDS011;45700;50.930;5.168;2023-02-15T02:56:43;52.08;;;19.17;;
36575;SDS011;45700;50.930;5.168;2023-02-15T03:00:53;61.22;;;18.70;;
36575;SDS011;45700;50.930;5.168;2023-02-15T03:04:57;54.35;;;18.70;;
36575;SDS011;45700;50.930;5.168;2023-02-15T03:09:06;65.63;;;20.98;;
36575;SDS011;45700;50.930;5.168;2023-02-15T03:13:14;61.15;;;19.83;;
36575;SDS011;45700;50.930;5.168;2023-02-15T03:17:15;69.70;;;19.55;;
36575;SDS011;45700;50.930;5.168;2023-02-15T03:21:26;64.47;;;20.10;;
36575;SDS011;45700;50.930;5.168;2023-02-15T03:25:35;61.38;;;20.65;;
36575;SDS011;45700;50.930;5.168;2023-02-15T03:29:38;87.63;;;25.48;;
36575;SDS011;45700;50.930;5.168;2023-02-15T03:33:41;74.40;;;23.73;;
36575;SDS011;45700;50.930;5.168;2023-02-15T03:37:50;77.57;;;22.42;;
36575;SDS011;45700;50.930;5.168;2023-02-15T03:42:08;67.68;;;21.33;;
36575;SDS011;45700;50.930;5.168;2023-02-15T03:50:18;72.45;;;23.33;;
36575;SDS011;45700;50.930;5.168;2023-02-15T03:54:38;69.47;;;20.30;;
36575;SDS011;45700;50.930;5.168;2023-02-15T03:58:43;60.80;;;18.73;;
36575;SDS011;45700;50.930;5.168;2023-02-15T04:07:10;59.55;;;20.13;;
36575;SDS011;45700;50.930;5.168;2023-02-15T04:11:11;58.88;;;18.45;;
36575;SDS011;45700;50.930;5.168;2023-02-15T04:15:12;57.75;;;16.30;;
36575;SDS011;45700;50.930;5.168;2023-02-15T04:19:32;51.63;;;16.80;;
36575;SDS011;45700;50.930;5.168;2023-02-15T04:23:52;50.50;;;18.83;;
36575;SDS011;45700;50.930;5.168;2023-02-15T04:28:11;54.65;;;17.65;;
36575;SDS011;45700;50.930;5.168;2023-02-15T04:32:12;57.25;;;15.82;;
36575;SDS011;45700;50.930;5.168;2023-02-15T04:36:13;57.58;;;17.67;;
36575;SDS011;45700;50.930;5.168;2023-02-15T04:40:15;57.17;;;16.75;;
36575;SDS011;45700;50.930;5.168;2023-02-15T04:44:16;59.20;;;17.27;;
36575;SDS011;45700;50.930;5.168;2023-02-15T04:48:17;59.83;;;19.20;;
36575;SDS011;45700;50.930;5.168;2023-02-15T04:52:18;48.47;;;16.10;;
36575;SDS011;45700;50.930;5.168;2023-02-15T04:56:20;49.80;;;16.98;;
36575;SDS011;45700;50.930;5.168;2023-02-15T05:00:21;56.95;;;17.35;;
36575;SDS011;45700;50.930;5.168;2023-02-15T05:04:22;54.15;;;16.63;;
36575;SDS011;45700;50.930;5.168;2023-02-15T05:08:23;48.25;;;16.38;;
36575;SDS011;45700;50.930;5.168;2023-02-15T05:12:24;50.78;;;15.88;;
36575;SDS011;45700;50.930;5.168;2023-02-15T05:16:25;52.60;;;16.85;;
36575;SDS011;45700;50.930;5.168;2023-02-15T05:20:27;61.75;;;17.70;;
36575;SDS011;45700;50.930;5.168;2023-02-15T05:24:28;48.95;;;16.92;;
36575;SDS011;45700;50.930;5.168;2023-02-15T05:28:48;58.35;;;17.60;;
36575;SDS011;45700;50.930;5.168;2023-02-15T05:32:49;57.13;;;15.60;;
36575;SDS011;45700;50.930;5.168;2023-02-15T05:36:50;58.40;;;17.25;;
36575;SDS011;45700;50.930;5.168;2023-02-15T05:40:51;52.60;;;16.50;;
36575;SDS011;45700;50.930;5.168;2023-02-15T05:44:52;60.80;;;17.98;;
36575;SDS011;45700;50.930;5.168;2023-02-15T05:48:53;61.50;;;17.55;;
36575;SDS011;45700;50.930;5.168;2023-02-15T05:52:54;55.55;;;17.02;;
36575;SDS011;45700;50.930;5.168;2023-02-15T05:56:55;52.58;;;16.10;;
36575;SDS011;45700;50.930;5.168;2023-02-15T06:00:56;48.28;;;17.83;;
36575;SDS011;45700;50.930;5.168;2023-02-15T06:04:57;62.33;;;17.92;;
36575;SDS011;45700;50.930;5.168;2023-02-15T06:08:58;54.00;;;17.13;;
36575;SDS011;45700;50.930;5.168;2023-02-15T06:13:00;60.38;;;17.00;;
36575;SDS011;45700;50.930;5.168;2023-02-15T06:17:01;50.05;;;16.15;;
36575;SDS011;45700;50.930;5.168;2023-02-15T06:21:02;51.65;;;16.02;;
36575;SDS011;45700;50.930;5.168;2023-02-15T06:25:03;42.58;;;16.80;;
36575;SDS011;45700;50.930;5.168;2023-02-15T06:29:04;48.88;;;15.63;;
36575;SDS011;45700;50.930;5.168;2023-02-15T06:33:05;47.85;;;16.83;;
36575;SDS011;45700;50.930;5.168;2023-02-15T06:37:06;50.63;;;16.73;;
36575;SDS011;45700;50.930;5.168;2023-02-15T06:41:08;46.28;;;17.73;;
36575;SDS011;45700;50.930;5.168;2023-02-15T06:45:09;55.38;;;16.17;;
36575;SDS011;45700;50.930;5.168;2023-02-15T06:49:10;57.00;;;17.02;;
36575;SDS011;45700;50.930;5.168;2023-02-15T06:53:11;66.45;;;19.52;;
36575;SDS011;45700;50.930;5.168;2023-02-15T06:57:12;52.38;;;16.48;;
36575;SDS011;45700;50.930;5.168;2023-02-15T07:01:13;60.67;;;17.38;;
36575;SDS011;45700;50.930;5.168;2023-02-15T07:05:14;55.22;;;16.30;;
36575;SDS011;45700;50.930;5.168;2023-02-15T07:09:15;52.78;;;18.42;;
36575;SDS011;45700;50.930;5.168;2023-02-15T07:13:16;45.97;;;16.55;;
36575;SDS011;45700;50.930;5.168;2023-02-15T07:17:17;50.10;;;16.52;;
36575;SDS011;45700;50.930;5.168;2023-02-15T07:21:18;52.78;;;18.33;;
36575;SDS011;45700;50.930;5.168;2023-02-15T07:25:20;49.72;;;18.27;;
36575;SDS011;45700;50.930;5.168;2023-02-15T07:29:21;78.00;;;21.10;;
36575;SDS011;45700;50.930;5.168;2023-02-15T07:33:23;56.60;;;18.05;;
36575;SDS011;45700;50.930;5.168;2023-02-15T07:37:24;62.75;;;19.92;;
36575;SDS011;45700;50.930;5.168;2023-02-15T07:41:25;66.07;;;19.92;;
36575;SDS011;45700;50.930;5.168;2023-02-15T07:45:26;57.35;;;19.33;;
36575;SDS011;45700;50.930;5.168;2023-02-15T07:49:27;54.33;;;19.52;;
36575;SDS011;45700;50.930;5.168;2023-02-15T07:53:29;64.13;;;19.73;;
36575;SDS011;45700;50.930;5.168;2023-02-15T07:57:30;62.50;;;20.00;;
36575;SDS011;45700;50.930;5.168;2023-02-15T08:01:33;67.40;;;22.35;;
36575;SDS011;45700;50.930;5.168;2023-02-15T08:05:35;67.30;;;21.52;;
36575;SDS011;45700;50.930;5.168;2023-02-15T08:09:36;69.13;;;22.08;;
36575;SDS011;45700;50.930;5.168;2023-02-15T08:13:37;69.03;;;23.00;;
36575;SDS011;45700;50.930;5.168;2023-02-15T08:17:53;63.58;;;20.35;;
36575;SDS011;45700;50.930;5.168;2023-02-15T08:21:55;61.42;;;20.77;;
36575;SDS011;45700;50.930;5.168;2023-02-15T08:25:59;63.58;;;21.20;;
36575;SDS011;45700;50.930;5.168;2023-02-15T08:30:00;65.45;;;21.42;;
36575;SDS011;45700;50.930;5.168;2023-02-15T08:34:01;56.13;;;19.80;;
36575;SDS011;45700;50.930;5.168;2023-02-15T08:38:02;56.60;;;19.90;;
36575;SDS011;45700;50.930;5.168;2023-02-15T08:42:03;65.85;;;19.38;;
36575;SDS011;45700;50.930;5.168;2023-02-15T08:46:05;50.67;;;18.30;;
36575;SDS011;45700;50.930;5.168;2023-02-15T08:50:06;50.28;;;19.00;;
36575;SDS011;45700;50.930;5.168;2023-02-15T08:54:09;61.03;;;18.83;;
36575;SDS011;45700;50.930;5.168;2023-02-15T08:58:10;55.50;;;18.13;;
36575;SDS011;45700;50.930;5.168;2023-02-15T09:02:12;61.08;;;20.15;;
36575;SDS011;45700;50.930;5.168;2023-02-15T09:06:13;56.45;;;19.63;;
36575;SDS011;45700;50.930;5.168;2023-02-15T09:10:15;60.20;;;19.45;;
36575;SDS011;45700;50.930;5.168;2023-02-15T09:14:19;59.25;;;19.65;;
36575;SDS011;45700;50.930;5.168;2023-02-15T09:18:21;57.53;;;19.48;;
36575;SDS011;45700;50.930;5.168;2023-02-15T09:22:22;54.22;;;18.92;;
36575;SDS011;45700;50.930;5.168;2023-02-15T09:26:24;43.60;;;16.67;;
36575;SDS011;45700;50.930;5.168;2023-02-15T09:30:25;52.40;;;19.08;;
36575;SDS011;45700;50.930;5.168;2023-02-15T09:34:26;55.45;;;18.75;;
36575;SDS011;45700;50.930;5.168;2023-02-15T09:38:27;48.15;;;19.63;;
36575;SDS011;45700;50.930;5.168;2023-02-15T10:03:37;43.80;;;15.55;;
36575;SDS011;45700;50.930;5.168;2023-02-15T10:24:50;36.95;;;14.00;;
36575;SDS011;45700;50.930;5.168;2023-02-15T10:28:55;38.17;;;13.68;;
36575;SDS011;45700;50.930;5.168;2023-02-15T10:33:01;37.40;;;14.15;;
36575;SDS011;45700;50.930;5.168;2023-02-15T11:01:59;30.48;;;12.13;;
36575;SDS011;45700;50.930;5.168;2023-02-15T11:06:06;35.10;;;11.50;;
36575;SDS011;45700;50.930;5.168;2023-02-15T11:18:34;37.65;;;11.02;;
36575;SDS011;45700;50.930;5.168;2023-02-15T11:22:35;35.35;;;11.73;;
36575;SDS011;45700;50.930;5.168;2023-02-15T11:26:37;27.00;;;9.95;;
36575;SDS011;45700;50.930;5.168;2023-02-15T11:30:43;28.65;;;10.18;;
36575;SDS011;45700;50.930;5.168;2023-02-15T11:34:53;41.67;;;10.65;;
36575;SDS011;45700;50.930;5.168;2023-02-15T11:39:03;30.70;;;9.40;;
36575;SDS011;45700;50.930;5.168;2023-02-15T11:43:28;30.13;;;10.70;;
36575;SDS011;45700;50.930;5.168;2023-02-15T11:47:26;29.92;;;10.48;;
36575;SDS011;45700;50.930;5.168;2023-02-15T11:51:28;25.35;;;9.85;;
36575;SDS011;45700;50.930;5.168;2023-02-15T11:55:29;29.08;;;10.63;;
36575;SDS011;45700;50.930;5.168;2023-02-15T11:59:32;27.77;;;9.40;;
36575;SDS011;45700;50.930;5.168;2023-02-15T12:07:36;31.65;;;10.52;;
36575;SDS011;45700;50.930;5.168;2023-02-15T12:11:39;27.70;;;9.43;;
36575;SDS011;45700;50.930;5.168;2023-02-15T12:15:41;30.25;;;10.70;;
36575;SDS011;45700;50.930;5.168;2023-02-15T12:19:43;26.38;;;9.63;;
36575;SDS011;45700;50.930;5.168;2023-02-15T12:27:46;25.83;;;10.60;;
36575;SDS011;45700;50.930;5.168;2023-02-15T12:31:49;27.63;;;9.45;;
36575;SDS011;45700;50.930;5.168;2023-02-15T12:35:55;31.85;;;11.45;;
36575;SDS011;45700;50.930;5.168;2023-02-15T12:39:59;25.73;;;9.80;;
36575;SDS011;45700;50.930;5.168;2023-02-15T12:44:06;30.77;;;12.00;;
36575;SDS011;45700;50.930;5.168;2023-02-15T12:48:12;33.47;;;10.60;;
36575;SDS011;45700;50.930;5.168;2023-02-15T12:56:20;27.13;;;9.93;;
36575;SDS011;45700;50.930;5.168;2023-02-15T13:00:28;31.98;;;10.38;;
36575;SDS011;45700;50.930;5.168;2023-02-15T13:04:31;35.05;;;11.13;;
36575;SDS011;45700;50.930;5.168;2023-02-15T13:09:14;31.65;;;11.43;;
36575;SDS011;45700;50.930;5.168;2023-02-15T13:13:16;28.33;;;10.70;;
36575;SDS011;45700;50.930;5.168;2023-02-15T13:17:24;35.95;;;12.40;;
36575;SDS011;45700;50.930;5.168;2023-02-15T13:21:34;32.83;;;11.02;;
36575;SDS011;45700;50.930;5.168;2023-02-15T13:25:42;37.78;;;11.40;;
36575;SDS011;45700;50.930;5.168;2023-02-15T13:29:49;37.17;;;11.65;;
36575;SDS011;45700;50.930;5.168;2023-02-15T13:33:52;35.70;;;11.18;;
36575;SDS011;45700;50.930;5.168;2023-02-15T13:38:40;32.75;;;11.82;;
36575;SDS011;45700;50.930;5.168;2023-02-15T13:42:18;29.23;;;11.35;;
36575;SDS011;45700;50.930;5.168;2023-02-15T13:46:32;28.70;;;11.82;;
36575;SDS011;45700;50.930;5.168;2023-02-15T14:07:23;26.30;;;10.82;;
36575;SDS011;45700;50.930;5.168;2023-02-15T14:11:50;37.42;;;14.55;;
36575;SDS011;45700;50.930;5.168;2023-02-15T14:15:49;49.95;;;15.48;;
36575;SDS011;45700;50.930;5.168;2023-02-15T14:19:57;34.05;;;11.98;;
36575;SDS011;45700;50.930;5.168;2023-02-15T14:28:22;32.47;;;12.90;;
36575;SDS011;45700;50.930;5.168;2023-02-15T14:32:28;29.20;;;12.57;;
36575;SDS011;45700;50.930;5.168;2023-02-15T14:36:32;36.38;;;12.13;;
36575;SDS011;45700;50.930;5.168;2023-02-15T14:53:20;30.58;;;12.48;;
36575;SDS011;45700;50.930;5.168;2023-02-15T14:57:23;34.17;;;12.63;;
36575;SDS011;45700;50.930;5.168;2023-02-15T15:01:26;38.55;;;13.18;;
36575;SDS011;45700;50.930;5.168;2023-02-15T15:05:32;43.33;;;12.77;;
36575;SDS011;45700;50.930;5.168;2023-02-15T15:09:35;31.98;;;11.88;;
36575;SDS011;45700;50.930;5.168;2023-02-15T15:13:37;33.28;;;12.25;;
36575;SDS011;45700;50.930;5.168;2023-02-15T15:26:20;40.95;;;13.32;;
36575;SDS011;45700;50.930;5.168;2023-02-15T15:51:19;38.20;;;13.43;;
36575;SDS011;45700;50.930;5.168;2023-02-15T15:55:24;43.00;;;13.90;;
36575;SDS011;45700;50.930;5.168;2023-02-15T15:59:28;43.47;;;14.60;;
36575;SDS011;45700;50.930;5.168;2023-02-15T16:03:30;42.60;;;15.30;;
36575;SDS011;45700;50.930;5.168;2023-02-15T16:07:31;36.15;;;12.82;;
36575;SDS011;45700;50.930;5.168;2023-02-15T16:11:32;41.33;;;13.75;;
36575;SDS011;45700;50.930;5.168;2023-02-15T16:15:42;45.25;;;15.07;;
36575;SDS011;45700;50.930;5.168;2023-02-15T16:19:44;44.85;;;14.18;;
36575;SDS011;45700;50.930;5.168;2023-02-15T16:28:06;38.65;;;14.55;;
36575;SDS011;45700;50.930;5.168;2023-02-15T16:32:24;43.53;;;14.00;;
36575;SDS011;45700;50.930;5.168;2023-02-15T16:36:26;40.28;;;14.13;;
36575;SDS011;45700;50.930;5.168;2023-02-15T16:44:41;42.15;;;15.20;;
36575;SDS011;45700;50.930;5.168;2023-02-15T16:48:43;37.53;;;13.25;;
36575;SDS011;45700;50.930;5.168;2023-02-15T16:52:45;40.45;;;14.90;;
36575;SDS011;45700;50.930;5.168;2023-02-15T16:56:46;44.33;;;14.60;;
36575;SDS011;45700;50.930;5.168;2023-02-15T17:00:47;39.13;;;14.05;;
36575;SDS011;45700;50.930;5.168;2023-02-15T17:05:04;40.65;;;13.40;;
36575;SDS011;45700;50.930;5.168;2023-02-15T17:09:13;41.40;;;15.45;;
36575;SDS011;45700;50.930;5.168;2023-02-15T17:13:18;44.67;;;15.70;;
36575;SDS011;45700;50.930;5.168;2023-02-15T17:17:19;42.50;;;15.02;;
36575;SDS011;45700;50.930;5.168;2023-02-15T17:21:23;47.10;;;15.38;;
36575;SDS011;45700;50.930;5.168;2023-02-15T17:25:29;42.15;;;15.73;;
36575;SDS011;45700;50.930;5.168;2023-02-15T17:29:36;46.25;;;15.85;;
36575;SDS011;45700;50.930;5.168;2023-02-15T17:33:38;52.53;;;17.05;;
36575;SDS011;45700;50.930;5.168;2023-02-15T17:41:41;52.30;;;18.98;;
36575;SDS011;45700;50.930;5.168;2023-02-15T17:45:44;46.55;;;17.50;;
36575;SDS011;45700;50.930;5.168;2023-02-15T17:49:47;57.70;;;16.92;;
36575;SDS011;45700;50.930;5.168;2023-02-15T17:53:49;49.25;;;16.88;;
36575;SDS011;45700;50.930;5.168;2023-02-15T17:58:13;53.10;;;17.15;;
36575;SDS011;45700;50.930;5.168;2023-02-15T18:02:14;50.72;;;17.70;;
36575;SDS011;45700;50.930;5.168;2023-02-15T18:06:34;44.35;;;15.75;;
36575;SDS011;45700;50.930;5.168;2023-02-15T18:10:55;39.03;;;15.35;;
36575;SDS011;45700;50.930;5.168;2023-02-15T18:19:19;52.30;;;15.55;;
36575;SDS011;45700;50.930;5.168;2023-02-15T18:23:20;41.60;;;15.52;;
36575;SDS011;45700;50.930;5.168;2023-02-15T18:27:21;49.00;;;15.68;;
36575;SDS011;45700;50.930;5.168;2023-02-15T18:31:22;39.30;;;15.05;;
36575;SDS011;45700;50.930;5.168;2023-02-15T18:35:25;44.97;;;15.63;;
36575;SDS011;45700;50.930;5.168;2023-02-15T18:39:37;52.17;;;16.40;;
36575;SDS011;45700;50.930;5.168;2023-02-15T18:43:39;59.63;;;17.52;;
36575;SDS011;45700;50.930;5.168;2023-02-15T18:47:40;44.13;;;16.23;;
36575;SDS011;45700;50.930;5.168;2023-02-15T18:51:41;42.55;;;16.67;;
36575;SDS011;45700;50.930;5.168;2023-02-15T18:55:42;49.38;;;16.05;;
36575;SDS011;45700;50.930;5.168;2023-02-15T18:59:43;49.70;;;19.08;;
36575;SDS011;45700;50.930;5.168;2023-02-15T19:03:45;48.25;;;16.85;;
36575;SDS011;45700;50.930;5.168;2023-02-15T19:07:46;54.50;;;16.77;;
36575;SDS011;45700;50.930;5.168;2023-02-15T19:11:51;49.08;;;18.20;;
36575;SDS011;45700;50.930;5.168;2023-02-15T19:15:53;45.67;;;15.55;;
36575;SDS011;45700;50.930;5.168;2023-02-15T19:19:54;51.33;;;17.40;;
36575;SDS011;45700;50.930;5.168;2023-02-15T19:23:55;54.78;;;18.98;;
36575;SDS011;45700;50.930;5.168;2023-02-15T19:27:57;48.75;;;18.13;;
36575;SDS011;45700;50.930;5.168;2023-02-15T19:31:58;51.75;;;18.60;;
36575;SDS011;45700;50.930;5.168;2023-02-15T19:35:59;57.05;;;19.23;;
36575;SDS011;45700;50.930;5.168;2023-02-15T19:40:00;53.67;;;19.40;;
36575;SDS011;45700;50.930;5.168;2023-02-15T19:44:01;55.70;;;18.15;;
36575;SDS011;45700;50.930;5.168;2023-02-15T19:48:04;51.38;;;17.88;;
36575;SDS011;45700;50.930;5.168;2023-02-15T19:52:16;49.78;;;18.33;;
36575;SDS011;45700;50.930;5.168;2023-02-15T19:56:21;45.35;;;17.02;;
36575;SDS011;45700;50.930;5.168;2023-02-15T20:00:24;55.80;;;19.50;;
36575;SDS011;45700;50.930;5.168;2023-02-15T20:04:25;59.08;;;19.55;;
36575;SDS011;45700;50.930;5.168;2023-02-15T20:08:26;58.40;;;18.92;;
36575;SDS011;45700;50.930;5.168;2023-02-15T20:12:28;51.80;;;19.33;;
36575;SDS011;45700;50.930;5.168;2023-02-15T20:16:29;48.75;;;18.08;;
36575;SDS011;45700;50.930;5.168;2023-02-15T20:20:33;47.38;;;17.38;;
36575;SDS011;45700;50.930;5.168;2023-02-15T20:24:34;56.72;;;19.23;;
36575;SDS011;45700;50.930;5.168;2023-02-15T20:28:35;52.28;;;18.15;;
36575;SDS011;45700;50.930;5.168;2023-02-15T20:32:36;55.83;;;19.70;;
36575;SDS011;45700;50.930;5.168;2023-02-15T20:36:37;49.33;;;18.65;;
36575;SDS011;45700;50.930;5.168;2023-02-15T20:40:39;52.30;;;17.90;;
36575;SDS011;45700;50.930;5.168;2023-02-15T20:45:01;44.40;;;17.70;;
36575;SDS011;45700;50.930;5.168;2023-02-15T20:49:05;58.67;;;19.45;;
36575;SDS011;45700;50.930;5.168;2023-02-15T20:53:07;58.03;;;17.77;;
36575;SDS011;45700;50.930;5.168;2023-02-15T20:57:10;55.58;;;16.70;;
36575;SDS011;45700;50.930;5.168;2023-02-15T21:01:12;42.63;;;17.27;;
36575;SDS011;45700;50.930;5.168;2023-02-15T21:05:13;45.40;;;17.45;;
36575;SDS011;45700;50.930;5.168;2023-02-15T21:09:15;43.50;;;15.63;;
36575;SDS011;45700;50.930;5.168;2023-02-15T21:13:20;54.63;;;18.83;;
36575;SDS011;45700;50.930;5.168;2023-02-15T21:17:22;43.20;;;16.15;;
36575;SDS011;45700;50.930;5.168;2023-02-15T21:21:23;57.55;;;18.42;;
36575;SDS011;45700;50.930;5.168;2023-02-15T21:25:26;44.40;;;16.70;;
36575;SDS011;45700;50.930;5.168;2023-02-15T21:29:29;50.28;;;16.95;;
36575;SDS011;45700;50.930;5.168;2023-02-15T21:33:30;50.47;;;16.70;;
36575;SDS011;45700;50.930;5.168;2023-02-15T21:37:31;46.25;;;17.88;;
36575;SDS011;45700;50.930;5.168;2023-02-15T21:41:34;44.90;;;17.52;;
36575;SDS011;45700;50.930;5.168;2023-02-15T21:50:15;55.77;;;17.50;;
36575;SDS011;45700;50.930;5.168;2023-02-15T21:54:35;48.60;;;16.73;;
36575;SDS011;45700;50.930;5.168;2023-02-15T21:58:36;50.25;;;17.25;;
36575;SDS011;45700;50.930;5.168;2023-02-15T22:02:37;53.05;;;17.90;;
36575;SDS011;45700;50.930;5.168;2023-02-15T22:06:39;52.63;;;17.50;;
36575;SDS011;45700;50.930;5.168;2023-02-15T22:10:40;40.83;;;15.55;;
36575;SDS011;45700;50.930;5.168;2023-02-15T22:14:42;50.63;;;16.90;;
36575;SDS011;45700;50.930;5.168;2023-02-15T22:18:43;53.60;;;17.50;;
36575;SDS011;45700;50.930;5.168;2023-02-15T22:22:47;48.40;;;18.30;;
36575;SDS011;45700;50.930;5.168;2023-02-15T22:26:48;51.55;;;16.45;;
36575;SDS011;45700;50.930;5.168;2023-02-15T22:30:49;51.47;;;17.30;;
36575;SDS011;45700;50.930;5.168;2023-02-15T22:34:51;45.42;;;17.15;;
36575;SDS011;45700;50.930;5.168;2023-02-15T22:38:52;47.60;;;16.98;;
36575;SDS011;45700;50.930;5.168;2023-02-15T22:42:54;45.20;;;18.15;;
36575;SDS011;45700;50.930;5.168;2023-02-15T22:46:56;51.83;;;16.38;;
36575;SDS011;45700;50.930;5.168;2023-02-15T22:50:58;53.17;;;16.42;;
36575;SDS011;45700;50.930;5.168;2023-02-15T22:54:59;43.00;;;15.90;;
36575;SDS011;45700;50.930;5.168;2023-02-15T22:59:01;45.40;;;16.52;;
36575;SDS011;45700;50.930;5.168;2023-02-15T23:03:10;49.55;;;17.15;;
36575;SDS011;45700;50.930;5.168;2023-02-15T23:07:14;44.40;;;14.93;;
36575;SDS011;45700;50.930;5.168;2023-02-15T23:11:15;55.58;;;17.98;;
36575;SDS011;45700;50.930;5.168;2023-02-15T23:15:17;48.80;;;17.70;;
36575;SDS011;45700;50.930;5.168;2023-02-15T23:19:18;56.08;;;19.00;;
36575;SDS011;45700;50.930;5.168;2023-02-15T23:23:21;53.10;;;18.88;;
36575;SDS011;45700;50.930;5.168;2023-02-15T23:27:24;51.22;;;17.20;;
36575;SDS011;45700;50.930;5.168;2023-02-15T23:31:48;42.63;;;15.75;;
36575;SDS011;45700;50.930;5.168;2023-02-15T23:35:49;49.78;;;19.13;;
36575;SDS011;45700;50.930;5.168;2023-02-15T23:39:51;44.40;;;17.33;;
36575;SDS011;45700;50.930;5.168;2023-02-15T23:44:10;50.78;;;17.38;;
36575;SDS011;45700;50.930;5.168;2023-02-15T23:52:42;44.47;;;15.20;;
36575;SDS011;45700;50.930;5.168;2023-02-15T23:56:44;50.35;;;18.02;;
